Time;durP1;ratioP1;P1;durP2;ratioP2;P2;SDS_P1;SDS_P2;PMS_P1;PMS_P2;Temp;Humidity;BMP_temperature;BMP_pressure;BME280_temperature;BME280_humidity;BME280_pressure;Samples;Min_cycle;Max_cycle;Signal;HPM_P1;HPM_P2
2023/12/12 00:01:23;;;;;;;3.10;2.30;;;11.20;80.00;;;;;;4992725;28;20046;-74
2023/12/12 00:03:49;;;;;;;2.42;1.70;;;11.20;80.10;;;;;;4961111;28;20038;-75
2023/12/12 00:06:16;;;;;;;3.53;2.53;;;11.20;80.00;;;;;;4994571;28;20030;-75
2023/12/12 00:08:42;;;;;;;2.28;1.98;;;11.20;80.00;;;;;;4994247;28;20161;-73
2023/12/12 00:11:08;;;;;;;2.13;1.80;;;11.20;80.00;;;;;;4993952;28;20073;-75
2023/12/12 00:13:34;;;;;;;3.55;1.98;;;11.20;80.00;;;;;;4976754;28;20042;-75
2023/12/12 00:15:59;;;;;;;2.88;1.90;;;11.20;80.00;;;;;;4977057;28;20042;-76
2023/12/12 00:18:25;;;;;;;2.63;2.00;;;11.20;80.00;;;;;;4976485;28;20037;-75
2023/12/12 00:20:51;;;;;;;3.03;2.10;;;11.20;80.00;;;;;;4993763;28;20037;-75
2023/12/12 00:23:16;;;;;;;2.28;1.73;;;11.10;80.00;;;;;;4992554;28;20089;-75
2023/12/12 00:25:43;;;;;;;3.38;2.08;;;11.20;80.00;;;;;;4976579;28;20501;-73
2023/12/12 00:28:08;;;;;;;3.08;1.98;;;11.20;80.00;;;;;;4976801;28;20022;-74
2023/12/12 00:30:34;;;;;;;2.20;1.88;;;11.20;80.10;;;;;;4994511;28;20056;-76
2023/12/12 00:33:00;;;;;;;2.85;1.90;;;11.10;80.00;;;;;;4992699;28;20448;-75
2023/12/12 00:35:26;;;;;;;3.03;2.00;;;11.10;80.00;;;;;;4976476;28;20068;-74
2023/12/12 00:37:52;;;;;;;3.42;2.10;;;11.10;80.10;;;;;;4992688;28;20046;-75
2023/12/12 00:40:17;;;;;;;2.20;1.90;;;11.10;80.10;;;;;;4993074;28;20165;-75
2023/12/12 00:42:43;;;;;;;3.17;2.10;;;11.10;80.10;;;;;;4992324;28;20560;-75
2023/12/12 00:45:10;;;;;;;2.40;1.95;;;11.10;80.10;;;;;;4976376;28;20027;-75
2023/12/12 00:47:35;;;;;;;2.05;1.83;;;11.10;80.10;;;;;;4992525;28;20031;-75
2023/12/12 00:50:02;;;;;;;2.08;1.85;;;11.10;80.10;;;;;;4993517;28;20387;-75
2023/12/12 00:52:29;;;;;;;3.30;2.00;;;11.10;80.10;;;;;;4976485;28;20491;-75
2023/12/12 00:54:57;;;;;;;2.53;2.00;;;11.10;80.10;;;;;;4994375;28;20046;-74
2023/12/12 00:57:22;;;;;;;2.40;1.90;;;11.00;80.10;;;;;;4993015;28;20042;-74
2023/12/12 00:59:48;;;;;;;2.10;1.90;;;11.00;80.00;;;;;;4993423;28;20086;-75
2023/12/12 01:02:14;;;;;;;2.20;2.00;;;11.00;80.10;;;;;;4995124;28;20054;-75
2023/12/12 01:04:39;;;;;;;3.35;1.80;;;11.00;80.10;;;;;;4998015;28;20121;-75
2023/12/12 01:07:05;;;;;;;2.90;2.15;;;11.00;80.10;;;;;;4980334;28;20030;-74
2023/12/12 01:09:31;;;;;;;3.10;1.90;;;11.00;80.10;;;;;;4996542;28;20509;-74
2023/12/12 01:11:56;;;;;;;2.75;1.80;;;11.00;80.10;;;;;;4980784;28;20026;-74
2023/12/12 01:14:22;;;;;;;2.40;1.90;;;11.00;80.10;;;;;;4996284;28;20061;-75
2023/12/12 01:16:48;;;;;;;2.15;1.90;;;11.00;80.10;;;;;;4979997;28;20157;-75
2023/12/12 01:19:13;;;;;;;2.60;2.15;;;11.00;80.10;;;;;;4995869;28;20034;-74
2023/12/12 01:21:39;;;;;;;2.22;1.83;;;11.00;80.10;;;;;;4980145;28;20037;-76
2023/12/12 01:24:05;;;;;;;2.53;2.05;;;11.00;80.10;;;;;;4996210;28;20042;-75
2023/12/12 01:26:30;;;;;;;2.85;2.03;;;11.00;80.10;;;;;;4980039;28;20031;-75
2023/12/12 01:28:56;;;;;;;2.90;2.10;;;11.00;80.10;;;;;;4979678;28;20034;-75
2023/12/12 01:31:22;;;;;;;2.38;1.98;;;11.00;80.10;;;;;;4979760;28;20042;-75
2023/12/12 01:33:51;;;;;;;2.88;2.05;;;10.90;80.00;;;;;;4996091;28;20034;-75
2023/12/12 01:36:17;;;;;;;2.60;2.03;;;10.90;80.10;;;;;;4979583;28;20030;-75
2023/12/12 01:38:44;;;;;;;2.40;2.10;;;10.90;80.10;;;;;;4980278;28;20045;-75
2023/12/12 01:41:10;;;;;;;3.55;2.28;;;10.90;80.10;;;;;;4995954;28;20110;-77
2023/12/12 01:43:36;;;;;;;2.92;2.28;;;10.90;80.10;;;;;;4995594;28;20459;-75
2023/12/12 01:46:05;;;;;;;2.47;2.22;;;10.90;80.10;;;;;;4979714;28;20057;-74
2023/12/12 01:48:32;;;;;;;2.40;1.85;;;10.90;80.10;;;;;;4996663;28;20030;-74
2023/12/12 01:50:59;;;;;;;3.38;2.38;;;10.90;80.10;;;;;;4995494;28;20055;-75
2023/12/12 01:53:29;;;;;;;2.78;2.20;;;10.90;80.20;;;;;;4979486;28;20034;-73
2023/12/12 01:55:57;;;;;;;3.70;2.35;;;10.80;80.10;;;;;;4995308;28;20031;-74
2023/12/12 01:58:25;;;;;;;3.25;2.22;;;10.80;80.10;;;;;;4995698;28;20030;-75
2023/12/12 02:00:52;;;;;;;2.65;2.15;;;10.80;80.10;;;;;;4978860;28;20143;-77
2023/12/12 02:03:18;;;;;;;4.13;2.65;;;10.80;80.10;;;;;;4993888;28;20049;-75
2023/12/12 02:05:45;;;;;;;4.15;2.60;;;10.80;80.10;;;;;;4977521;28;20482;-75
2023/12/12 02:08:11;;;;;;;3.42;2.53;;;10.80;80.10;;;;;;4994824;28;20026;-74
2023/12/12 02:10:37;;;;;;;3.67;2.50;;;10.70;80.00;;;;;;4994209;28;20494;-74
2023/12/12 02:13:03;;;;;;;3.13;2.28;;;10.70;80.10;;;;;;4994318;28;20132;-75
2023/12/12 02:15:29;;;;;;;3.63;2.70;;;10.70;80.10;;;;;;4994527;28;20049;-75
2023/12/12 02:17:54;;;;;;;3.72;2.75;;;10.70;80.10;;;;;;4977708;28;20125;-73
2023/12/12 02:20:20;;;;;;;3.50;2.30;;;10.70;80.10;;;;;;4978642;28;20031;-75
2023/12/12 02:22:46;;;;;;;3.40;2.58;;;10.60;80.10;;;;;;4994113;28;20096;-74
2023/12/12 02:25:12;;;;;;;5.38;2.85;;;10.60;80.10;;;;;;4994071;28;20042;-75
2023/12/12 02:27:38;;;;;;;4.07;2.90;;;10.60;80.10;;;;;;4977669;28;20050;-75
2023/12/12 02:30:07;;;;;;;4.65;3.03;;;10.60;80.10;;;;;;4978090;28;20069;-75
2023/12/12 02:32:33;;;;;;;4.00;2.75;;;10.60;80.20;;;;;;4978242;28;20038;-75
2023/12/12 02:34:58;;;;;;;4.57;2.80;;;10.60;80.20;;;;;;4977441;28;20030;-76
2023/12/12 02:37:24;;;;;;;3.97;2.63;;;10.50;80.10;;;;;;4977621;28;20054;-75
2023/12/12 02:39:50;;;;;;;3.33;2.50;;;10.50;80.10;;;;;;4977231;28;20506;-75
2023/12/12 02:42:15;;;;;;;5.18;2.88;;;10.50;80.10;;;;;;4977519;28;20038;-75
2023/12/12 02:44:41;;;;;;;5.28;2.72;;;10.50;80.10;;;;;;4977166;28;20545;-73
2023/12/12 02:47:07;;;;;;;4.05;3.20;;;10.50;80.10;;;;;;4977313;28;20027;-75
2023/12/12 02:49:32;;;;;;;4.50;2.83;;;10.40;80.10;;;;;;4993579;28;20034;-74
2023/12/12 02:51:58;;;;;;;3.92;2.67;;;10.40;80.10;;;;;;4977488;28;20169;-73
2023/12/12 02:54:24;;;;;;;4.35;2.83;;;10.40;80.80;;;;;;4977858;28;20045;-75
2023/12/12 02:56:50;;;;;;;4.05;2.83;;;10.40;80.20;;;;;;4993357;28;20034;-74
2023/12/12 02:59:16;;;;;;;4.18;3.05;;;10.40;80.20;;;;;;4993401;28;20036;-75
2023/12/12 03:01:42;;;;;;;4.13;3.10;;;10.30;80.10;;;;;;4955058;28;1112198;-74
2023/12/12 03:04:08;;;;;;;5.13;3.30;;;10.30;80.10;;;;;;4978527;28;20046;-75
2023/12/12 03:06:33;;;;;;;4.55;3.00;;;10.30;80.10;;;;;;4994510;28;20037;-75
2023/12/12 03:08:59;;;;;;;4.18;3.00;;;10.30;80.10;;;;;;4978661;28;20033;-75
2023/12/12 03:11:25;;;;;;;3.65;3.03;;;10.20;80.10;;;;;;4978450;28;20031;-75
2023/12/12 03:13:50;;;;;;;4.80;3.20;;;10.20;80.20;;;;;;4994168;28;20387;-75
2023/12/12 03:16:16;;;;;;;4.50;3.28;;;10.20;80.10;;;;;;4994027;28;20109;-74
2023/12/12 03:18:42;;;;;;;4.50;3.25;;;10.20;80.10;;;;;;4977742;28;20026;-75
2023/12/12 03:21:07;;;;;;;5.47;3.58;;;10.10;80.10;;;;;;4994033;28;20547;-75
2023/12/12 03:23:33;;;;;;;4.88;3.08;;;10.10;80.10;;;;;;4993272;28;20046;-75
2023/12/12 03:26:07;;;;;;;3.83;3.05;;;10.10;80.20;;;;;;4962319;28;20038;-75
2023/12/12 03:28:38;;;;;;;4.25;3.17;;;10.10;80.20;;;;;;4995282;28;20077;-74
2023/12/12 03:31:04;;;;;;;4.47;3.30;;;10.00;80.80;;;;;;4994779;28;20061;-75
2023/12/12 03:33:29;;;;;;;4.68;2.95;;;10.00;80.10;;;;;;4993656;28;20038;-75
2023/12/12 03:35:55;;;;;;;5.03;3.22;;;10.00;80.10;;;;;;4993743;28;20041;-75
2023/12/12 03:38:21;;;;;;;4.13;3.00;;;10.00;80.20;;;;;;4977171;28;20473;-75
2023/12/12 03:40:47;;;;;;;4.38;3.03;;;9.90;80.10;;;;;;4994058;28;20031;-75
2023/12/12 03:43:13;;;;;;;4.47;3.20;;;9.90;80.20;;;;;;4977067;28;20406;-75
2023/12/12 03:45:39;;;;;;;5.15;3.47;;;9.90;80.20;;;;;;4993245;28;20073;-75
2023/12/12 03:48:05;;;;;;;4.47;3.38;;;9.80;80.10;;;;;;4993490;28;20046;-74
2023/12/12 03:50:30;;;;;;;5.32;3.83;;;9.80;80.10;;;;;;4994325;28;20022;-75
2023/12/12 03:52:56;;;;;;;4.30;3.25;;;9.80;80.10;;;;;;4977363;28;20046;-75
2023/12/12 03:55:22;;;;;;;4.75;3.28;;;9.80;80.20;;;;;;4993297;28;20034;-75
2023/12/12 03:57:48;;;;;;;4.57;3.35;;;9.80;80.20;;;;;;4993467;28;20034;-74
2023/12/12 04:00:14;;;;;;;4.50;3.38;;;9.70;80.20;;;;;;4977485;28;20041;-76
2023/12/12 04:02:41;;;;;;;4.68;3.33;;;9.70;80.20;;;;;;4992768;28;20050;-74
2023/12/12 04:05:10;;;;;;;4.30;3.40;;;9.60;80.10;;;;;;4993027;28;20201;-75
2023/12/12 04:07:39;;;;;;;4.38;3.40;;;9.60;80.20;;;;;;4993118;28;20038;-74
2023/12/12 04:10:06;;;;;;;4.53;3.50;;;9.60;80.20;;;;;;4993797;28;20451;-75
2023/12/12 04:12:36;;;;;;;4.72;3.38;;;9.50;80.30;;;;;;4976792;28;20064;-75
2023/12/12 04:15:02;;;;;;;4.78;3.58;;;9.50;80.30;;;;;;4977137;28;20030;-74
2023/12/12 04:17:29;;;;;;;4.10;3.20;;;9.50;80.30;;;;;;4994610;28;20026;-75
2023/12/12 04:19:54;;;;;;;4.50;3.22;;;9.50;80.40;;;;;;4976664;28;20078;-75
2023/12/12 04:22:20;;;;;;;4.82;3.55;;;9.40;80.30;;;;;;4977229;28;20030;-74
2023/12/12 04:24:46;;;;;;;4.38;3.15;;;9.40;80.40;;;;;;4993283;28;20046;-74
2023/12/12 04:27:12;;;;;;;4.55;3.15;;;9.40;80.40;;;;;;4992868;28;20030;-75
2023/12/12 04:29:37;;;;;;;4.07;3.08;;;9.30;80.30;;;;;;4992448;28;20030;-74
2023/12/12 04:32:04;;;;;;;4.38;3.38;;;9.30;80.40;;;;;;4976656;28;20384;-75
2023/12/12 04:34:33;;;;;;;4.15;3.22;;;9.30;80.40;;;;;;4960235;28;20520;-74
2023/12/12 04:37:01;;;;;;;4.03;3.10;;;9.30;80.50;;;;;;4992705;28;20110;-75
2023/12/12 04:39:27;;;;;;;4.75;3.70;;;9.20;80.50;;;;;;4992644;28;20117;-74
2023/12/12 04:41:53;;;;;;;4.80;3.00;;;9.20;80.50;;;;;;4976539;28;20034;-75
2023/12/12 04:44:19;;;;;;;4.40;3.13;;;9.20;80.50;;;;;;4993205;28;20038;-72
2023/12/12 04:46:44;;;;;;;4.00;3.10;;;9.10;80.50;;;;;;4976556;28;20049;-74
2023/12/12 04:49:10;;;;;;;4.53;3.22;;;9.10;80.50;;;;;;4976404;28;20141;-75
2023/12/12 04:51:36;;;;;;;4.78;3.63;;;9.10;80.50;;;;;;4992606;28;20030;-74
2023/12/12 04:54:02;;;;;;;4.85;3.70;;;9.10;80.50;;;;;;4976367;28;20526;-75
2023/12/12 04:56:27;;;;;;;4.65;3.38;;;9.10;80.50;;;;;;4992684;28;20118;-75
2023/12/12 04:58:53;;;;;;;5.13;3.90;;;9.10;80.60;;;;;;4992201;28;20030;-74
2023/12/12 05:01:19;;;;;;;4.57;3.33;;;9.10;80.60;;;;;;4992191;28;20031;-75
2023/12/12 05:03:45;;;;;;;5.20;3.70;;;9.00;80.50;;;;;;4992492;28;20034;-74
2023/12/12 05:06:11;;;;;;;5.35;4.07;;;9.00;80.60;;;;;;4992112;28;20085;-75
2023/12/12 05:08:37;;;;;;;4.82;3.58;;;9.00;80.60;;;;;;4992372;28;20117;-75
2023/12/12 05:11:04;;;;;;;4.95;3.97;;;9.00;80.60;;;;;;4976127;28;20141;-74
2023/12/12 05:13:30;;;;;;;4.75;3.75;;;9.00;80.60;;;;;;4993069;28;20046;-74
2023/12/12 05:15:56;;;;;;;4.47;3.45;;;9.00;80.60;;;;;;4992338;28;20380;-74
2023/12/12 05:18:22;;;;;;;5.50;3.72;;;9.00;80.60;;;;;;4976168;28;20031;-75
2023/12/12 05:20:48;;;;;;;3.67;3.28;;;9.00;80.60;;;;;;4975825;28;20034;-73
2023/12/12 05:23:13;;;;;;;4.40;3.50;;;9.00;80.60;;;;;;4992485;28;20035;-75
2023/12/12 05:25:42;;;;;;;4.25;3.47;;;9.00;80.60;;;;;;4976275;28;20041;-75
2023/12/12 05:28:08;;;;;;;5.00;3.55;;;9.00;80.60;;;;;;4976477;28;20093;-75
2023/12/12 05:30:33;;;;;;;4.57;3.53;;;9.00;80.70;;;;;;4976838;28;20436;-74
2023/12/12 05:32:59;;;;;;;5.35;3.60;;;8.90;80.60;;;;;;4993162;28;20026;-74
2023/12/12 05:35:25;;;;;;;4.97;3.75;;;8.90;80.60;;;;;;4976128;28;20041;-75
2023/12/12 05:37:51;;;;;;;4.85;3.72;;;8.90;80.60;;;;;;4975961;28;20482;-74
2023/12/12 05:40:17;;;;;;;4.38;3.55;;;8.90;80.60;;;;;;4975864;28;20034;-74
2023/12/12 05:42:43;;;;;;;4.78;3.65;;;8.90;80.60;;;;;;4992184;28;20038;-76
2023/12/12 05:45:10;;;;;;;5.68;3.83;;;8.90;80.60;;;;;;4991942;28;20379;-75
2023/12/12 05:47:36;;;;;;;4.80;3.53;;;8.90;81.30;;;;;;4993797;28;20510;-74
2023/12/12 05:50:02;;;;;;;4.82;3.42;;;8.90;80.70;;;;;;4995616;28;20041;-75
2023/12/12 05:52:28;;;;;;;4.90;3.67;;;8.90;80.70;;;;;;4995484;28;20029;-74
2023/12/12 05:54:55;;;;;;;4.72;3.30;;;8.80;80.60;;;;;;4995213;28;20042;-74
2023/12/12 05:57:20;;;;;;;5.28;3.70;;;8.80;80.60;;;;;;4979775;28;20146;-75
2023/12/12 05:59:47;;;;;;;5.53;3.25;;;8.80;80.70;;;;;;4979910;28;20455;-75
2023/12/12 06:02:13;;;;;;;4.88;3.72;;;8.80;80.70;;;;;;4978921;28;20093;-73
2023/12/12 06:04:38;;;;;;;3.85;3.30;;;8.80;80.70;;;;;;4979151;28;20038;-75
2023/12/12 06:07:05;;;;;;;4.40;3.47;;;8.70;80.70;;;;;;4995569;28;20030;-74
2023/12/12 06:09:31;;;;;;;4.85;3.47;;;8.70;80.70;;;;;;4994934;28;20034;-74
2023/12/12 06:12:01;;;;;;;5.05;3.50;;;8.70;80.70;;;;;;4995611;28;20416;-74
2023/12/12 06:14:27;;;;;;;4.78;3.10;;;8.70;80.70;;;;;;4995576;28;20042;-74
2023/12/12 06:16:53;;;;;;;4.28;3.47;;;8.70;80.70;;;;;;4979010;28;20084;-75
2023/12/12 06:19:19;;;;;;;4.22;3.00;;;8.70;80.70;;;;;;4995173;28;20129;-74
2023/12/12 06:21:46;;;;;;;4.30;3.53;;;8.70;80.70;;;;;;4978729;28;20030;-75
2023/12/12 06:24:12;;;;;;;3.90;3.03;;;8.60;80.70;;;;;;4995009;28;20040;-77
2023/12/12 06:26:38;;;;;;;4.82;3.53;;;8.60;80.70;;;;;;4995076;28;20030;-74
2023/12/12 06:29:07;;;;;;;3.88;2.90;;;8.60;80.70;;;;;;4979015;28;20037;-75
2023/12/12 06:31:33;;;;;;;4.32;3.45;;;8.60;80.70;;;;;;4978841;28;20487;-74
2023/12/12 06:33:58;;;;;;;3.63;3.15;;;8.60;80.70;;;;;;4978898;28;20133;-74
2023/12/12 06:36:24;;;;;;;4.40;3.38;;;8.50;80.70;;;;;;4994899;28;20031;-74
2023/12/12 06:38:50;;;;;;;6.30;3.40;;;8.50;80.70;;;;;;4995082;28;20122;-74
2023/12/12 06:41:15;;;;;;;4.45;3.28;;;8.60;80.80;;;;;;4995035;28;20034;-74
2023/12/12 06:43:42;;;;;;;4.88;3.20;;;8.50;80.70;;;;;;4994485;28;20050;-74
2023/12/12 06:46:09;;;;;;;4.30;3.22;;;8.50;80.70;;;;;;4994925;28;20114;-74
2023/12/12 06:48:36;;;;;;;5.00;3.53;;;8.50;81.00;;;;;;4978321;28;20471;-73
2023/12/12 06:51:03;;;;;;;4.47;3.33;;;8.50;80.70;;;;;;4978722;28;20033;-74
2023/12/12 06:53:29;;;;;;;4.55;3.28;;;8.50;80.70;;;;;;4995504;28;20046;-75
2023/12/12 06:55:55;;;;;;;4.82;3.53;;;8.50;80.70;;;;;;4994542;28;20101;-74
2023/12/12 06:58:22;;;;;;;5.10;3.50;;;8.50;80.70;;;;;;4993928;28;20045;-73
2023/12/12 07:00:48;;;;;;;4.50;3.20;;;8.50;80.70;;;;;;4978088;28;20030;-74
2023/12/12 07:03:13;;;;;;;3.90;3.22;;;8.50;80.70;;;;;;4995508;28;20050;-75
2023/12/12 07:05:40;;;;;;;4.53;3.28;;;8.50;80.70;;;;;;4994338;28;20037;-75
2023/12/12 07:08:06;;;;;;;3.80;3.20;;;8.50;81.40;;;;;;4995241;28;20026;-74
2023/12/12 07:10:33;;;;;;;4.80;3.20;;;8.50;80.80;;;;;;4977994;28;20034;-74
2023/12/12 07:12:59;;;;;;;4.97;3.47;;;8.50;80.80;;;;;;4995543;28;20038;-72
2023/12/12 07:15:29;;;;;;;4.53;3.20;;;8.50;80.70;;;;;;4994448;28;20385;-74
2023/12/12 07:17:55;;;;;;;4.95;3.45;;;8.50;80.80;;;;;;4977566;28;20125;-74
2023/12/12 07:20:21;;;;;;;5.22;3.30;;;8.50;80.80;;;;;;4993531;28;20034;-74
2023/12/12 07:22:47;;;;;;;5.07;3.15;;;8.50;80.80;;;;;;4977758;28;20042;-74
2023/12/12 07:25:13;;;;;;;4.63;3.28;;;8.50;80.80;;;;;;4993555;28;20042;-74
2023/12/12 07:27:39;;;;;;;4.60;3.38;;;8.50;80.80;;;;;;4977765;28;20030;-74
2023/12/12 07:30:05;;;;;;;5.00;3.50;;;8.50;80.80;;;;;;4977382;28;20092;-74
2023/12/12 07:32:31;;;;;;;6.03;3.88;;;8.50;80.80;;;;;;4995722;28;20054;-73
2023/12/12 07:34:57;;;;;;;3.75;3.05;;;8.50;80.80;;;;;;4977323;28;20068;-74
2023/12/12 07:37:22;;;;;;;5.13;3.50;;;8.50;80.80;;;;;;4994533;28;20034;-74
2023/12/12 07:39:48;;;;;;;5.00;3.30;;;8.50;80.80;;;;;;4977605;28;20149;-75
2023/12/12 07:42:14;;;;;;;3.85;2.92;;;8.50;80.80;;;;;;4994053;28;20404;-74
2023/12/12 07:44:39;;;;;;;4.40;3.20;;;8.50;80.80;;;;;;4993447;28;20129;-74
2023/12/12 07:47:07;;;;;;;5.60;3.38;;;8.50;80.80;;;;;;4993579;28;20046;-74
2023/12/12 07:49:33;;;;;;;4.03;3.30;;;8.50;80.80;;;;;;4993378;28;20072;-74
2023/12/12 07:51:59;;;;;;;4.38;3.20;;;8.50;80.70;;;;;;4994308;28;20038;-74
2023/12/12 07:54:25;;;;;;;4.22;3.30;;;8.50;80.70;;;;;;4993170;28;20042;-72
2023/12/12 07:56:50;;;;;;;3.90;3.00;;;8.50;80.70;;;;;;4993505;28;20022;-73
2023/12/12 07:59:17;;;;;;;4.07;3.13;;;8.60;80.80;;;;;;4977207;28;20076;-75
2023/12/12 08:01:43;;;;;;;4.78;3.20;;;8.60;80.80;;;;;;4993959;28;20043;-73
2023/12/12 08:04:09;;;;;;;4.32;3.00;;;8.60;80.80;;;;;;4993094;28;20049;-75
2023/12/12 08:06:35;;;;;;;4.63;3.33;;;8.60;80.80;;;;;;4977012;28;20065;-75
2023/12/12 08:09:01;;;;;;;3.72;3.05;;;8.60;80.80;;;;;;4994524;28;20034;-74
2023/12/12 08:11:27;;;;;;;4.40;2.85;;;8.60;80.80;;;;;;4993635;28;20136;-75
2023/12/12 08:13:56;;;;;;;4.40;3.13;;;8.60;80.80;;;;;;4993104;28;20042;-75
2023/12/12 08:16:23;;;;;;;3.88;3.00;;;8.60;80.80;;;;;;4976782;28;20332;-77
2023/12/12 08:18:50;;;;;;;4.88;3.00;;;8.60;80.80;;;;;;4993033;28;20031;-75
2023/12/12 08:21:17;;;;;;;4.47;3.10;;;8.60;80.80;;;;;;4976768;28;20495;-75
2023/12/12 08:23:43;;;;;;;4.70;3.22;;;8.60;80.80;;;;;;4994093;28;20074;-74
2023/12/12 08:26:10;;;;;;;4.72;3.20;;;8.60;80.80;;;;;;4976835;28;20081;-75
2023/12/12 08:28:36;;;;;;;4.50;3.00;;;8.70;80.90;;;;;;4977077;28;20112;-75
2023/12/12 08:31:01;;;;;;;5.70;3.15;;;8.70;80.90;;;;;;4994326;28;20062;-75
2023/12/12 08:33:27;;;;;;;4.75;3.20;;;8.70;80.90;;;;;;4993005;28;20037;-74
2023/12/12 08:35:53;;;;;;;4.90;3.17;;;8.70;80.90;;;;;;4977261;28;20057;-76
2023/12/12 08:38:19;;;;;;;3.63;3.00;;;8.70;80.90;;;;;;4993802;28;20030;-75
2023/12/12 08:40:45;;;;;;;3.72;2.85;;;8.70;80.90;;;;;;4994109;28;20077;-74
2023/12/12 08:43:10;;;;;;;4.57;3.10;;;8.70;80.90;;;;;;4976526;28;20037;-77
2023/12/12 08:45:36;;;;;;;4.80;3.05;;;8.70;80.90;;;;;;4976287;28;20376;-74
2023/12/12 08:48:02;;;;;;;5.30;3.13;;;8.70;80.90;;;;;;4993366;28;20038;-74
2023/12/12 08:50:28;;;;;;;3.47;2.60;;;8.70;80.90;;;;;;4992538;28;20444;-74
2023/12/12 08:52:54;;;;;;;3.63;2.95;;;8.80;80.90;;;;;;4992330;28;20033;-74
2023/12/12 08:55:20;;;;;;;4.43;3.05;;;8.80;80.90;;;;;;5008354;28;20034;-76
2023/12/12 08:57:49;;;;;;;3.78;2.90;;;8.80;80.90;;;;;;4992383;28;20030;-75
2023/12/12 09:00:15;;;;;;;4.97;3.00;;;8.80;81.00;;;;;;4993021;28;20088;-74
2023/12/12 09:02:41;;;;;;;4.90;3.03;;;8.80;80.90;;;;;;4975995;28;20473;-75
2023/12/12 09:05:07;;;;;;;6.05;3.08;;;8.80;80.90;;;;;;4992561;28;20121;-73
2023/12/12 09:07:34;;;;;;;4.28;2.88;;;8.80;80.90;;;;;;4992899;28;20125;-73
2023/12/12 09:10:03;;;;;;;5.57;3.40;;;8.80;80.90;;;;;;4992431;28;20023;-74
2023/12/12 09:12:29;;;;;;;5.85;3.38;;;8.90;81.00;;;;;;4993351;28;20035;-75
2023/12/12 09:14:55;;;;;;;3.63;2.78;;;8.90;81.00;;;;;;4993246;28;20034;-75
2023/12/12 09:17:21;;;;;;;4.43;2.85;;;8.90;81.00;;;;;;4992995;28;20124;-74
2023/12/12 09:19:46;;;;;;;4.43;3.17;;;8.90;80.90;;;;;;4959378;28;20092;-73
2023/12/12 09:22:12;;;;;;;5.45;3.22;;;8.90;80.90;;;;;;4977292;28;20042;-74
2023/12/12 09:24:38;;;;;;;5.35;3.25;;;9.00;81.00;;;;;;4979556;28;20073;-75
2023/12/12 09:27:04;;;;;;;4.35;3.00;;;9.00;81.00;;;;;;4980126;28;20121;-75
2023/12/12 09:29:29;;;;;;;5.22;2.78;;;9.00;80.90;;;;;;4995769;28;20168;-74
2023/12/12 09:31:57;;;;;;;4.45;3.05;;;9.00;80.90;;;;;;4996074;28;20026;-75
2023/12/12 09:34:26;;;;;;;4.57;3.00;;;9.00;80.90;;;;;;4996596;28;20095;-75
2023/12/12 09:36:51;;;;;;;4.38;2.85;;;9.10;81.00;;;;;;4997349;28;20447;-76
2023/12/12 09:39:17;;;;;;;4.30;2.70;;;9.10;80.90;;;;;;4995697;28;20038;-75
2023/12/12 09:41:49;;;;;;;4.72;3.22;;;9.10;80.90;;;;;;4995602;28;20062;-76
2023/12/12 09:44:19;;;;;;;4.78;2.78;;;9.10;80.90;;;;;;4995995;28;20039;-75
2023/12/12 09:46:46;;;;;;;4.75;2.83;;;9.10;80.90;;;;;;4995376;28;20038;-76
2023/12/12 09:49:13;;;;;;;5.15;2.63;;;9.20;80.90;;;;;;4996521;28;20553;-75
2023/12/12 09:51:41;;;;;;;4.53;2.60;;;9.20;80.90;;;;;;4996536;28;20038;-75
2023/12/12 09:54:09;;;;;;;5.05;2.95;;;9.20;80.90;;;;;;4996752;28;20092;-74
2023/12/12 09:56:37;;;;;;;5.63;3.03;;;9.20;80.90;;;;;;4979098;28;20113;-74
2023/12/12 09:59:04;;;;;;;4.50;2.90;;;9.20;80.90;;;;;;4995166;28;20069;-76
2023/12/12 10:01:35;;;;;;;3.63;2.63;;;9.30;80.90;;;;;;4994720;28;20032;-75
2023/12/12 10:04:06;;;;;;;4.30;2.50;;;9.30;80.90;;;;;;4994706;28;20044;-75
2023/12/12 10:06:39;;;;;;;4.45;2.50;;;9.30;80.90;;;;;;4995074;28;20034;-75
2023/12/12 10:09:06;;;;;;;4.57;2.63;;;9.30;80.80;;;;;;4994746;28;20030;-75
2023/12/12 10:11:32;;;;;;;5.70;3.00;;;9.30;80.80;;;;;;4995153;28;20050;-75
2023/12/12 10:14:00;;;;;;;4.70;2.80;;;9.30;80.80;;;;;;4995342;28;20529;-74
2023/12/12 10:16:27;;;;;;;4.22;2.75;;;9.40;80.80;;;;;;4996334;28;20138;-74
2023/12/12 10:18:53;;;;;;;4.85;2.78;;;9.40;80.80;;;;;;4978958;28;20391;-74
2023/12/12 10:21:20;;;;;;;4.57;2.65;;;9.40;80.80;;;;;;4995001;28;20471;-74
2023/12/12 10:23:49;;;;;;;3.33;2.35;;;9.40;80.80;;;;;;4995177;28;20038;-75
2023/12/12 10:26:21;;;;;;;3.92;2.97;;;9.50;80.80;;;;;;4996002;28;20030;-75
2023/12/12 10:28:47;;;;;;;3.72;2.50;;;9.50;80.80;;;;;;4995813;28;20467;-75
2023/12/12 10:31:13;;;;;;;4.85;2.70;;;9.50;80.70;;;;;;4979105;28;20170;-77
2023/12/12 10:33:38;;;;;;;4.45;2.95;;;9.50;80.70;;;;;;4995916;28;20045;-74
2023/12/12 10:36:09;;;;;;;4.03;2.85;;;9.50;80.70;;;;;;4996171;28;20066;-74
2023/12/12 10:38:36;;;;;;;4.22;2.58;;;9.60;80.70;;;;;;4978986;28;20033;-75
2023/12/12 10:41:12;;;;;;;3.55;2.67;;;9.60;80.60;;;;;;4978624;28;20073;-75
2023/12/12 10:43:40;;;;;;;3.42;2.45;;;9.60;80.70;;;;;;4978455;28;20069;-75
2023/12/12 10:46:10;;;;;;;4.32;2.83;;;9.60;80.60;;;;;;4994448;28;20466;-75
2023/12/12 10:48:44;;;;;;;5.45;2.75;;;9.70;80.70;;;;;;4994687;28;20026;-75
2023/12/12 10:51:11;;;;;;;4.45;2.70;;;9.70;80.60;;;;;;4994861;28;20433;-74
2023/12/12 10:53:37;;;;;;;5.10;2.72;;;9.70;80.50;;;;;;4995377;28;20042;-75
2023/12/12 10:56:05;;;;;;;4.13;2.72;;;9.80;80.50;;;;;;4994272;28;20495;-74
2023/12/12 10:58:36;;;;;;;4.38;2.55;;;9.80;80.50;;;;;;4978023;28;20037;-74
2023/12/12 11:01:02;;;;;;;3.00;2.15;;;9.90;80.50;;;;;;4978326;28;20031;-74
2023/12/12 11:03:30;;;;;;;4.75;2.45;;;9.80;80.40;;;;;;4977544;28;20050;-75
2023/12/12 11:05:57;;;;;;;3.30;2.05;;;9.90;80.50;;;;;;4977914;28;20432;-74
2023/12/12 11:08:24;;;;;;;4.45;2.63;;;9.90;80.40;;;;;;4994457;28;20129;-74
2023/12/12 11:10:54;;;;;;;4.13;2.28;;;9.90;80.40;;;;;;4994894;28;20352;-74
2023/12/12 11:13:22;;;;;;;3.92;2.28;;;10.00;80.50;;;;;;4978276;28;20476;-74
2023/12/12 11:15:50;;;;;;;5.35;2.67;;;10.00;80.40;;;;;;4993987;28;20494;-76
2023/12/12 11:18:20;;;;;;;5.47;2.75;;;10.10;80.50;;;;;;4995137;28;20455;-74
2023/12/12 11:20:46;;;;;;;5.43;2.60;;;10.10;80.60;;;;;;4978199;28;20465;-74
2023/12/12 11:23:54;;;;;;;4.10;2.38;;;10.10;80.60;;;;;;4994545;28;20363;-74
2023/12/12 11:26:22;;;;;;;6.75;2.55;;;10.20;80.80;;;;;;4995706;28;20061;-73
2023/12/12 11:28:49;;;;;;;5.47;2.53;;;10.20;80.50;;;;;;4994939;28;20080;-73
2023/12/12 11:31:27;;;;;;;5.40;2.45;;;10.20;80.50;;;;;;4994788;28;20027;-73
2023/12/12 11:34:09;;;;;;;4.25;2.38;;;10.30;80.60;;;;;;4977604;28;20038;-74
2023/12/12 11:36:51;;;;;;;4.78;2.33;;;10.30;80.60;;;;;;4993772;28;20443;-72
2023/12/12 11:39:36;;;;;;;4.82;2.50;;;10.30;80.60;;;;;;4993686;28;20026;-73
2023/12/12 11:42:02;;;;;;;;;;;10.40;80.60;;;;;;4994665;28;20066;-74
2023/12/12 11:44:42;;;;;;;4.82;2.20;;;10.40;80.30;;;;;;4992670;28;19917;-75
2023/12/12 11:47:15;;;;;;;4.93;2.25;;;10.40;80.30;;;;;;4977429;28;20093;-73
2023/12/12 11:49:41;;;;;;;3.63;2.28;;;10.40;80.30;;;;;;4993705;28;20034;-75
2023/12/12 11:52:07;;;;;;;3.05;2.28;;;10.40;80.30;;;;;;4994646;28;20077;-76
2023/12/12 11:54:33;;;;;;;6.85;2.53;;;10.50;80.40;;;;;;4993622;28;20038;-74
2023/12/12 11:57:00;;;;;;;5.28;2.33;;;10.50;80.50;;;;;;4993461;28;20430;-73
2023/12/12 11:59:28;;;;;;;7.18;3.10;;;10.50;80.70;;;;;;4993715;28;20045;-73
2023/12/12 12:01:55;;;;;;;5.13;2.50;;;10.60;80.80;;;;;;4993014;28;20133;-74
2023/12/12 12:04:21;;;;;;;4.25;2.60;;;10.60;80.80;;;;;;5009505;28;20038;-73
2023/12/12 12:06:49;;;;;;;4.63;2.83;;;10.70;80.80;;;;;;4977128;28;20463;-73
2023/12/12 12:09:16;;;;;;;3.33;2.10;;;10.70;80.70;;;;;;4995098;28;20034;-74
2023/12/12 12:11:47;;;;;;;4.10;2.15;;;10.80;80.70;;;;;;4993090;28;20436;-72
2023/12/12 12:14:24;;;;;;;5.35;2.58;;;10.80;80.70;;;;;;4977018;28;20391;-73
2023/12/12 12:16:53;;;;;;;3.97;2.53;;;10.80;80.70;;;;;;4976792;28;20061;-73
2023/12/12 12:19:30;;;;;;;3.95;2.33;;;10.80;80.60;;;;;;4992776;28;20054;-73
2023/12/12 12:22:04;;;;;;;4.55;2.42;;;10.90;80.70;;;;;;4976946;28;20026;-73
2023/12/12 12:24:30;;;;;;;4.05;2.20;;;10.90;80.60;;;;;;4992846;28;20514;-75
2023/12/12 12:26:57;;;;;;;3.65;2.10;;;10.90;80.50;;;;;;4992853;28;20026;-73
2023/12/12 12:29:24;;;;;;;3.95;2.00;;;10.90;80.50;;;;;;4992743;28;20034;-74
2023/12/12 12:31:49;;;;;;;2.97;1.90;;;11.00;80.50;;;;;;4993039;28;20467;-74
2023/12/12 12:34:19;;;;;;;5.82;2.60;;;11.00;80.40;;;;;;4992781;28;20045;-75
2023/12/12 12:36:49;;;;;;;4.85;2.28;;;11.00;80.40;;;;;;4976283;28;20038;-73
2023/12/12 12:39:18;;;;;;;4.25;2.10;;;11.10;80.40;;;;;;4976618;28;20030;-74
2023/12/12 12:41:48;;;;;;;4.03;2.20;;;11.10;80.40;;;;;;4976905;28;20038;-73
2023/12/12 12:44:14;;;;;;;4.68;2.22;;;11.10;80.40;;;;;;4992501;28;20045;-74
2023/12/12 12:46:53;;;;;;;2.92;1.90;;;11.10;80.40;;;;;;4992634;28;20109;-74
2023/12/12 12:49:19;;;;;;;3.30;1.90;;;11.20;80.50;;;;;;4993193;28;20151;-75
2023/12/12 12:51:48;;;;;;;4.75;2.30;;;11.20;80.40;;;;;;4976401;28;20113;-73